createdAt,value
2018-07-09T00:00:28.751Z,21.67
2018-07-09T00:01:28.744Z,21.58
2018-07-09T00:02:28.662Z,21.64
2018-07-09T00:03:28.644Z,21.58
2018-07-09T00:04:28.578Z,21.51
2018-07-09T00:05:28.536Z,21.57
2018-07-09T00:06:28.505Z,21.62
2018-07-09T00:07:28.450Z,21.58
2018-07-09T00:08:28.397Z,21.60
2018-07-09T00:09:28.351Z,21.64
2018-07-09T00:10:28.306Z,21.64
2018-07-09T00:11:28.277Z,21.54
2018-07-09T00:12:28.211Z,21.58
2018-07-09T00:13:28.200Z,21.64
2018-07-09T00:14:28.122Z,21.62
2018-07-09T00:15:28.104Z,21.61
2018-07-09T00:16:28.029Z,21.61
2018-07-09T00:17:28.006Z,21.58
2018-07-09T00:18:27.954Z,21.67
2018-07-09T00:19:27.890Z,21.58
2018-07-09T00:20:27.860Z,21.55
2018-07-09T00:21:27.830Z,21.48
2018-07-09T00:22:27.766Z,21.37
2018-07-09T00:23:27.739Z,21.43
2018-07-09T00:24:27.676Z,21.39
2018-07-09T00:25:27.631Z,21.39
2018-07-09T00:26:27.584Z,21.48
2018-07-09T00:27:27.560Z,21.48
2018-07-09T00:28:27.492Z,21.39
2018-07-09T00:29:27.439Z,21.42
2018-07-09T00:30:27.418Z,21.40
2018-07-09T00:31:27.366Z,21.51
2018-07-09T00:32:27.310Z,21.42
2018-07-09T00:33:27.278Z,21.43
2018-07-09T00:34:27.465Z,21.40
2018-07-09T00:35:27.167Z,21.27
2018-07-09T00:36:27.122Z,21.24
2018-07-09T00:37:27.077Z,21.20
2018-07-09T00:38:27.057Z,21.22
2018-07-09T00:39:27.006Z,21.22
2018-07-09T00:40:26.979Z,21.27
2018-07-09T00:41:26.901Z,21.35
2018-07-09T00:42:26.855Z,21.36
2018-07-09T00:43:26.818Z,21.33
2018-07-09T00:44:26.779Z,21.32
2018-07-09T00:45:26.715Z,21.24
2018-07-09T00:46:26.681Z,21.33
2018-07-09T00:47:26.656Z,21.27
2018-07-09T00:48:26.598Z,21.29
2018-07-09T00:49:26.535Z,21.35
2018-07-09T00:50:26.493Z,21.27
2018-07-09T00:51:26.455Z,21.20
2018-07-09T00:52:26.414Z,21.24
2018-07-09T00:53:26.356Z,21.20
2018-07-09T00:54:26.325Z,21.27
2018-07-09T00:55:26.268Z,21.25
2018-07-09T00:56:26.233Z,21.30
2018-07-09T00:57:26.187Z,21.24
2018-07-09T00:58:26.126Z,21.11
2018-07-09T00:59:26.090Z,21.03
2018-07-09T01:00:26.063Z,21.02
2018-07-09T01:01:26.004Z,21.03
2018-07-09T01:02:25.946Z,21.06
2018-07-09T01:03:25.906Z,21.20
2018-07-09T01:04:25.857Z,21.17
2018-07-09T01:05:25.821Z,21.18
2018-07-09T01:06:25.784Z,21.18
2018-07-09T01:07:25.749Z,21.07
2018-07-09T01:08:25.694Z,21.09
2018-07-09T01:09:25.645Z,21.17
2018-07-09T01:10:25.584Z,21.17
2018-07-09T01:11:25.544Z,21.14
2018-07-09T01:12:25.504Z,21.17
2018-07-09T01:13:25.459Z,20.96
2018-07-09T01:14:25.405Z,20.88
2018-07-09T01:15:25.390Z,20.87
2018-07-09T01:16:25.316Z,20.84
2018-07-09T01:17:25.266Z,20.77
2018-07-09T01:18:25.247Z,20.81
2018-07-09T01:19:25.175Z,20.85
2018-07-09T01:20:25.180Z,20.85
2018-07-09T01:21:40.915Z,20.92
2018-07-09T01:22:40.828Z,20.80
2018-07-09T01:23:40.798Z,20.92
2018-07-09T01:24:40.737Z,20.97
2018-07-09T01:25:40.688Z,20.87
2018-07-09T01:26:40.635Z,20.88
2018-07-09T01:27:40.595Z,20.81
2018-07-09T01:28:40.576Z,20.72
2018-07-09T01:29:40.511Z,20.81
2018-07-09T01:30:40.485Z,20.88
2018-07-09T01:31:40.404Z,20.81
2018-07-09T01:32:40.377Z,20.75
2018-07-09T01:33:40.323Z,20.80
2018-07-09T01:34:40.291Z,20.77
2018-07-09T01:35:40.253Z,20.78
2018-07-09T01:36:40.184Z,20.69
2018-07-09T01:37:40.165Z,20.77
2018-07-09T01:38:40.096Z,20.80
2018-07-09T01:39:40.045Z,20.90
2018-07-09T01:40:40.008Z,20.84
2018-07-09T01:41:39.949Z,20.87
2018-07-09T01:42:39.910Z,20.66
2018-07-09T01:43:39.872Z,20.77
2018-07-09T01:44:39.817Z,20.66
2018-07-09T01:45:39.777Z,20.63
2018-07-09T01:46:39.749Z,20.74
2018-07-09T01:47:39.694Z,20.75
2018-07-09T01:48:39.633Z,20.69
2018-07-09T01:49:39.609Z,20.69
2018-07-09T01:50:39.543Z,20.62
2018-07-09T01:51:39.515Z,20.67
2018-07-09T01:52:39.448Z,20.63
2018-07-09T01:53:39.414Z,20.66
2018-07-09T01:54:39.353Z,20.72
2018-07-09T01:55:39.342Z,20.69
2018-07-09T01:56:39.280Z,20.72
2018-07-09T01:57:39.220Z,20.75
2018-07-09T01:58:39.206Z,20.63
2018-07-09T01:59:39.135Z,20.60
2018-07-09T02:00:39.120Z,20.58
2018-07-09T02:01:39.065Z,20.67
2018-07-09T02:02:39.008Z,20.62
2018-07-09T02:03:38.947Z,20.66
2018-07-09T02:04:38.901Z,20.56
2018-07-09T02:05:38.857Z,20.50
2018-07-09T02:06:38.829Z,20.41
2018-07-09T02:07:38.770Z,20.44
2018-07-09T02:08:38.735Z,20.39
2018-07-09T02:09:38.675Z,20.34
2018-07-09T02:10:38.627Z,20.43
2018-07-09T02:11:38.584Z,20.32
2018-07-09T02:12:38.537Z,20.37
2018-07-09T02:13:38.505Z,20.32
2018-07-09T02:14:38.450Z,20.39
2018-07-09T02:15:38.420Z,20.47
2018-07-09T02:16:38.371Z,20.47
2018-07-09T02:17:38.326Z,20.50
2018-07-09T02:18:38.276Z,20.50
2018-07-09T02:19:38.231Z,20.48
2018-07-09T02:20:38.308Z,20.56
2018-07-09T02:21:38.133Z,20.41
2018-07-09T02:22:38.103Z,20.48
2018-07-09T02:23:38.041Z,20.48
2018-07-09T02:24:38.005Z,20.41
2018-07-09T02:25:37.986Z,20.44
2018-07-09T02:26:37.902Z,20.32
2018-07-09T02:27:37.877Z,20.29
2018-07-09T02:28:37.813Z,20.19
2018-07-09T02:29:37.801Z,20.22
2018-07-09T02:30:37.729Z,20.29
2018-07-09T02:31:37.677Z,20.32
2018-07-09T02:32:37.668Z,20.31
2018-07-09T02:33:37.615Z,20.37
2018-07-09T02:34:37.566Z,20.36
2018-07-09T02:35:37.530Z,20.37
2018-07-09T02:36:37.445Z,20.39
2018-07-09T02:37:37.453Z,20.34
2018-07-09T02:38:37.352Z,20.43
2018-07-09T02:39:37.312Z,20.32
2018-07-09T02:40:37.285Z,20.32
2018-07-09T02:41:37.229Z,20.32
2018-07-09T02:42:37.187Z,20.34
2018-07-09T02:43:37.140Z,20.52
2018-07-09T02:44:37.090Z,20.50
2018-07-09T02:45:37.038Z,20.39
2018-07-09T02:46:37.004Z,20.41
2018-07-09T02:47:36.977Z,20.47
2018-07-09T02:48:36.910Z,20.40
2018-07-09T02:49:36.877Z,20.55
2018-07-09T02:50:36.821Z,20.48
2018-07-09T02:51:36.765Z,20.32
2018-07-09T02:52:36.745Z,20.43
2018-07-09T02:53:36.701Z,20.36
2018-07-09T02:54:36.659Z,20.41
2018-07-09T02:55:36.582Z,20.26
2018-07-09T02:56:36.572Z,20.36
2018-07-09T02:57:36.504Z,20.36
2018-07-09T02:58:36.473Z,20.36
2018-07-09T02:59:36.394Z,20.36
2018-07-09T03:00:36.357Z,20.18
2018-07-09T03:01:36.317Z,20.24
2018-07-09T03:02:36.271Z,20.14
2018-07-09T03:03:36.217Z,20.28
2018-07-09T03:04:36.169Z,20.19
2018-07-09T03:05:36.120Z,20.18
2018-07-09T03:06:36.100Z,20.07
2018-07-09T03:07:36.056Z,20.19
2018-07-09T03:08:36.015Z,20.25
2018-07-09T03:09:35.938Z,20.28
2018-07-09T03:10:35.926Z,20.24
2018-07-09T03:11:35.852Z,20.24
2018-07-09T03:12:35.810Z,20.16
2018-07-09T03:13:35.757Z,20.18
2018-07-09T03:14:35.721Z,20.24
2018-07-09T03:15:35.665Z,20.14
2018-07-09T03:16:35.624Z,20.16
2018-07-09T03:17:35.580Z,20.18
2018-07-09T03:18:35.530Z,20.19
2018-07-09T03:19:35.512Z,20.24
2018-07-09T03:20:35.441Z,20.16
2018-07-09T03:21:35.391Z,20.14
2018-07-09T03:22:35.347Z,20.14
2018-07-09T03:23:35.330Z,20.21
2018-07-09T03:24:35.260Z,20.16
2018-07-09T03:25:35.213Z,20.19
2018-07-09T03:26:35.206Z,20.28
2018-07-09T03:27:35.147Z,20.24
2018-07-09T03:28:35.113Z,20.16
2018-07-09T03:29:35.029Z,20.13
2018-07-09T03:30:34.987Z,20.14
2018-07-09T03:31:34.950Z,20.18
2018-07-09T03:32:34.894Z,20.13
2018-07-09T03:33:34.848Z,20.22
2018-07-09T03:34:34.808Z,20.25
2018-07-09T03:35:34.781Z,20.26
2018-07-09T03:36:34.711Z,20.26
2018-07-09T03:37:34.674Z,20.24
2018-07-09T03:38:34.646Z,20.11
2018-07-09T03:39:34.569Z,20.07
2018-07-09T03:40:34.538Z,19.96
2018-07-09T03:41:34.503Z,20.13
2018-07-09T03:42:34.467Z,20.13
2018-07-09T03:43:34.423Z,20.06
2018-07-09T03:44:34.340Z,20.06
2018-07-09T03:45:34.312Z,20.06
2018-07-09T03:46:34.260Z,20.16
2018-07-09T03:47:34.210Z,20.10
2018-07-09T03:48:34.158Z,20.16
2018-07-09T03:49:34.112Z,20.16
2018-07-09T03:50:34.071Z,20.11
2018-07-09T03:51:34.027Z,20.07
2018-07-09T03:52:33.974Z,20.02
2018-07-09T03:53:33.963Z,19.96
2018-07-09T03:54:33.886Z,20.02
2018-07-09T03:55:33.867Z,19.96
2018-07-09T03:56:33.798Z,19.92
2018-07-09T03:57:33.770Z,20.09
2018-07-09T03:58:33.711Z,20.10
2018-07-09T03:59:33.687Z,20.09
2018-07-09T04:00:33.613Z,20.10
2018-07-09T04:01:33.571Z,20.07
2018-07-09T04:02:33.536Z,20.10
2018-07-09T04:03:33.500Z,20.11
2018-07-09T04:04:33.432Z,20.13
2018-07-09T04:05:33.377Z,20.25
2018-07-09T04:06:33.339Z,20.22
2018-07-09T04:07:33.304Z,20.14
2018-07-09T04:08:33.240Z,20.18
2018-07-09T04:09:33.198Z,20.14
2018-07-09T04:10:33.156Z,20.28
2018-07-09T04:11:33.130Z,20.18
2018-07-09T04:12:33.080Z,20.18
2018-07-09T04:13:33.031Z,20.21
2018-07-09T04:14:32.969Z,20.07
2018-07-09T04:15:32.945Z,20.19
2018-07-09T04:16:44.431Z,20.14
2018-07-09T04:17:44.464Z,20.11
2018-07-09T04:18:44.445Z,20.18
2018-07-09T04:19:44.399Z,20.14
2018-07-09T04:20:44.357Z,20.19
2018-07-09T04:21:44.283Z,20.22
2018-07-09T04:22:44.277Z,20.11
2018-07-09T04:23:44.209Z,20.09
2018-07-09T04:24:44.184Z,20.14
2018-07-09T04:25:44.105Z,20.02
2018-07-09T04:26:44.073Z,19.96
2018-07-09T04:27:44.012Z,19.96
2018-07-09T04:28:43.997Z,19.94
2018-07-09T04:29:43.927Z,20.06
2018-07-09T04:30:43.873Z,20.11
2018-07-09T04:31:43.837Z,20.10
2018-07-09T04:32:43.808Z,20.04
2018-07-09T04:33:43.746Z,20.09
2018-07-09T04:34:43.699Z,20.03
2018-07-09T04:35:43.645Z,20.06
2018-07-09T04:36:43.606Z,20.11
2018-07-09T04:37:43.628Z,20.06
2018-07-09T04:38:43.535Z,20.04
2018-07-09T04:39:43.469Z,20.13
2018-07-09T04:40:43.410Z,20.02
2018-07-09T04:41:43.370Z,19.91
2018-07-09T04:42:43.335Z,20.00
2018-07-09T04:43:43.314Z,19.85
2018-07-09T04:44:43.256Z,20.04
2018-07-09T04:45:43.184Z,19.99
2018-07-09T04:46:43.165Z,20.07
2018-07-09T04:47:43.122Z,20.04
2018-07-09T04:48:43.046Z,19.99
2018-07-09T04:49:43.009Z,20.04
2018-07-09T04:50:42.956Z,19.94
2018-07-09T04:51:42.914Z,19.95
2018-07-09T04:52:42.864Z,20.02
2018-07-09T04:53:42.843Z,20.06
2018-07-09T04:54:42.782Z,19.92
2018-07-09T04:55:42.733Z,19.99
2018-07-09T04:56:42.711Z,19.82
2018-07-09T04:57:42.650Z,19.82
2018-07-09T04:58:42.603Z,19.73
2018-07-09T04:59:42.543Z,19.76
2018-07-09T05:00:42.503Z,19.67
2018-07-09T05:01:42.454Z,19.70
2018-07-09T05:02:42.437Z,19.74
2018-07-09T05:03:42.377Z,19.84
2018-07-09T05:04:42.345Z,19.84
2018-07-09T05:05:42.366Z,19.91
2018-07-09T05:06:42.230Z,19.85
2018-07-09T05:07:42.189Z,19.84
2018-07-09T05:08:42.163Z,19.89
2018-07-09T05:09:42.105Z,19.92
2018-07-09T05:10:42.062Z,19.88
2018-07-09T05:11:42.008Z,19.99
2018-07-09T05:12:41.971Z,19.95
2018-07-09T05:13:41.933Z,19.82
2018-07-09T05:14:41.857Z,19.91
2018-07-09T05:15:41.822Z,20.03
2018-07-09T05:16:41.771Z,19.86
2018-07-09T05:17:41.738Z,19.86
2018-07-09T05:18:41.694Z,19.82
2018-07-09T05:19:41.631Z,19.91
2018-07-09T05:20:41.657Z,19.88
2018-07-09T05:21:41.552Z,19.88
2018-07-09T05:22:41.507Z,19.92
2018-07-09T05:23:41.488Z,19.84
2018-07-09T05:24:41.404Z,19.79
2018-07-09T05:25:41.368Z,19.85
2018-07-09T05:26:41.314Z,19.84
2018-07-09T05:27:41.282Z,19.82
2018-07-09T05:28:41.219Z,19.77
2018-07-09T05:29:41.187Z,19.79
2018-07-09T05:30:41.140Z,19.66
2018-07-09T05:31:41.122Z,19.71
2018-07-09T05:32:41.032Z,19.82
2018-07-09T05:33:41.008Z,19.81
2018-07-09T05:34:40.953Z,19.74
2018-07-09T05:35:40.901Z,19.82
2018-07-09T05:36:40.879Z,19.84
2018-07-09T05:37:40.814Z,19.71
2018-07-09T05:38:40.767Z,19.79
2018-07-09T05:39:40.744Z,19.67
2018-07-09T05:40:40.674Z,19.66
2018-07-09T05:41:40.623Z,19.70
2018-07-09T05:42:40.611Z,19.64
2018-07-09T05:43:40.560Z,19.62
2018-07-09T05:44:40.505Z,19.79
2018-07-09T05:45:40.440Z,19.71
2018-07-09T05:46:40.406Z,19.69
2018-07-09T05:47:40.355Z,19.66
2018-07-09T05:48:40.311Z,19.67
2018-07-09T05:49:40.272Z,19.66
2018-07-09T05:50:40.224Z,19.64
2018-07-09T05:51:40.191Z,19.62
2018-07-09T05:52:40.143Z,19.58
2018-07-09T05:53:40.080Z,19.69
2018-07-09T05:54:40.055Z,19.62
2018-07-09T05:55:39.989Z,19.67
2018-07-09T05:56:39.951Z,19.56
2018-07-09T05:57:39.907Z,19.62
2018-07-09T05:59:20.949Z,19.62
2018-07-09T06:00:20.841Z,19.55
2018-07-09T06:01:20.812Z,19.54
2018-07-09T06:02:20.753Z,19.54
2018-07-09T06:03:20.700Z,19.51
2018-07-09T06:04:20.683Z,19.49
2018-07-09T06:05:20.609Z,19.49
2018-07-09T06:06:20.564Z,19.59
2018-07-09T06:07:20.517Z,19.48
2018-07-09T06:08:20.502Z,19.40
2018-07-09T06:09:20.468Z,19.36
2018-07-09T06:10:20.392Z,19.44
2018-07-09T06:11:20.374Z,19.40
2018-07-09T06:12:20.292Z,19.48
2018-07-09T06:13:20.243Z,19.44
2018-07-09T06:14:20.203Z,19.31
2018-07-09T06:15:20.173Z,19.29
2018-07-09T06:16:20.104Z,19.21
2018-07-09T06:17:20.087Z,19.18
2018-07-09T06:18:20.044Z,19.07
2018-07-09T06:19:20.009Z,19.07
2018-07-09T06:20:19.932Z,19.08
2018-07-09T06:21:19.879Z,18.99
2018-07-09T06:22:19.829Z,18.92
2018-07-09T06:23:19.797Z,18.95
2018-07-09T06:24:19.733Z,18.86
2018-07-09T06:25:19.734Z,18.81
2018-07-09T06:26:19.685Z,18.78
2018-07-09T06:27:19.623Z,18.78
2018-07-09T06:28:19.581Z,18.74
2018-07-09T06:29:19.509Z,18.74
2018-07-09T06:30:19.463Z,18.86
2018-07-09T06:31:19.411Z,18.74
2018-07-09T06:32:19.369Z,18.74
2018-07-09T06:33:19.318Z,18.75
2018-07-09T06:34:19.287Z,18.70
2018-07-09T06:35:19.235Z,18.73
2018-07-09T06:36:19.194Z,18.65
2018-07-09T06:37:19.148Z,18.65
2018-07-09T06:38:19.087Z,18.68
2018-07-09T06:39:19.061Z,18.77
2018-07-09T06:40:19.020Z,18.62
2018-07-09T06:41:18.952Z,18.66
2018-07-09T06:42:18.932Z,18.65
2018-07-09T06:43:18.877Z,18.62
2018-07-09T06:44:18.828Z,18.58
2018-07-09T06:45:18.790Z,18.63
2018-07-09T06:46:18.745Z,18.53
2018-07-09T06:47:18.671Z,18.59
2018-07-09T06:48:18.704Z,18.59
2018-07-09T06:49:18.602Z,18.41
2018-07-09T06:50:18.561Z,18.47
2018-07-09T06:51:18.490Z,18.45
2018-07-09T06:52:18.459Z,18.35
2018-07-09T06:53:18.395Z,18.44
2018-07-09T06:54:18.352Z,18.45
2018-07-09T06:55:18.303Z,18.34
2018-07-09T06:56:18.263Z,18.31
2018-07-09T06:57:18.228Z,18.22
2018-07-09T06:58:18.200Z,18.33
2018-07-09T06:59:18.108Z,18.29
2018-07-09T07:00:18.090Z,18.33
2018-07-09T07:01:18.033Z,18.43
2018-07-09T07:02:18.044Z,18.38
2018-07-09T07:03:17.946Z,18.26
2018-07-09T07:04:17.892Z,18.28
2018-07-09T07:05:17.875Z,18.29
2018-07-09T07:06:17.791Z,18.19
2018-07-09T07:07:17.761Z,18.20
2018-07-09T07:08:17.736Z,18.19
2018-07-09T07:09:17.659Z,18.22
2018-07-09T07:10:17.629Z,18.34
2018-07-09T07:11:17.579Z,18.29
2018-07-09T07:12:17.515Z,18.34
2018-07-09T07:13:17.477Z,18.25
2018-07-09T07:14:17.480Z,18.26
2018-07-09T07:15:17.382Z,18.25
2018-07-09T07:16:17.325Z,18.26
2018-07-09T07:17:17.304Z,18.22
2018-07-09T07:18:17.262Z,18.26
2018-07-09T07:19:17.214Z,18.26
2018-07-09T07:20:17.153Z,18.31
2018-07-09T07:21:17.108Z,18.29
2018-07-09T07:22:17.067Z,18.26
2018-07-09T07:23:17.037Z,18.26
2018-07-09T07:24:16.948Z,18.23
2018-07-09T07:25:16.909Z,18.25
2018-07-09T07:26:16.897Z,18.29
2018-07-09T07:27:16.814Z,18.13
2018-07-09T07:28:16.767Z,18.10
2018-07-09T07:29:16.729Z,18.04
2018-07-09T07:30:16.686Z,18.20
2018-07-09T07:31:16.633Z,18.25
2018-07-09T07:32:16.591Z,18.18
2018-07-09T07:33:16.677Z,18.08
2018-07-09T07:34:16.497Z,18.11
2018-07-09T07:35:16.477Z,18.20
2018-07-09T07:36:16.432Z,18.15
2018-07-09T07:37:16.358Z,18.20
2018-07-09T07:38:16.327Z,18.10
2018-07-09T07:39:16.312Z,18.26
2018-07-09T07:40:16.239Z,18.37
2018-07-09T07:41:16.156Z,18.44
2018-07-09T07:42:16.137Z,18.40
2018-07-09T07:43:16.073Z,18.35
2018-07-09T07:44:16.031Z,18.49
2018-07-09T07:45:15.985Z,18.55
2018-07-09T07:46:15.940Z,18.58
2018-07-09T07:47:15.889Z,18.55
2018-07-09T07:48:15.872Z,18.59
2018-07-09T07:49:15.788Z,18.56
2018-07-09T07:50:15.868Z,18.56
2018-07-09T07:51:15.725Z,18.53
2018-07-09T07:52:15.670Z,18.49
2018-07-09T07:53:15.598Z,18.55
2018-07-09T07:54:15.578Z,18.56
2018-07-09T07:55:15.521Z,18.59
2018-07-09T07:56:15.474Z,18.59
2018-07-09T07:57:15.443Z,18.59
2018-07-09T07:58:15.369Z,18.70
2018-07-09T07:59:15.345Z,18.75
2018-07-09T08:00:15.288Z,18.71
2018-07-09T08:01:15.224Z,18.75
2018-07-09T08:02:15.186Z,18.80
2018-07-09T08:03:15.138Z,18.62
2018-07-09T08:04:15.096Z,18.66
2018-07-09T08:05:15.049Z,18.66
2018-07-09T08:06:15.016Z,18.58
2018-07-09T08:07:14.956Z,18.63
2018-07-09T08:08:14.908Z,18.56
2018-07-09T08:09:14.940Z,18.65
2018-07-09T08:10:14.841Z,18.63
2018-07-09T08:11:14.765Z,18.58
2018-07-09T08:13:00.534Z,18.50
2018-07-09T08:13:27.988Z,18.58
2018-07-09T08:14:14.638Z,18.55
2018-07-09T08:15:14.587Z,18.55
2018-07-09T08:16:14.563Z,18.44
2018-07-09T08:17:14.498Z,18.55
2018-07-09T08:18:14.455Z,18.52
2018-07-09T08:19:14.393Z,18.53
2018-07-09T08:20:14.356Z,18.40
2018-07-09T08:21:14.328Z,18.45
2018-07-09T08:22:14.285Z,18.45
2018-07-09T08:23:14.208Z,18.52
2018-07-09T08:24:14.169Z,18.55
2018-07-09T08:25:14.136Z,18.49
2018-07-09T08:26:14.076Z,18.49
2018-07-09T08:27:14.023Z,18.55
2018-07-09T08:28:13.989Z,18.62
2018-07-09T08:29:13.937Z,18.60
2018-07-09T08:30:13.885Z,18.68
2018-07-09T08:31:13.903Z,18.55
2018-07-09T08:32:13.792Z,18.56
2018-07-09T08:33:13.755Z,18.53
2018-07-09T08:34:13.707Z,18.59
2018-07-09T08:35:13.673Z,18.60
2018-07-09T08:36:13.620Z,18.66
2018-07-09T08:37:13.564Z,18.56
2018-07-09T08:38:13.523Z,18.59
2018-07-09T08:39:13.484Z,18.53
2018-07-09T08:40:13.447Z,18.62
2018-07-09T08:41:13.405Z,18.66
2018-07-09T08:42:13.348Z,18.63
2018-07-09T08:43:13.287Z,18.75
2018-07-09T08:44:13.266Z,18.71
2018-07-09T08:45:13.209Z,18.70
2018-07-09T08:46:13.143Z,18.60
2018-07-09T08:47:13.103Z,18.62
2018-07-09T08:48:13.084Z,18.70
2018-07-09T08:49:13.009Z,18.68
2018-07-09T08:50:12.983Z,18.73
2018-07-09T08:51:12.917Z,18.71
2018-07-09T08:52:12.872Z,18.78
2018-07-09T08:53:12.832Z,18.73
2018-07-09T08:54:12.803Z,18.73
2018-07-09T08:55:12.802Z,18.74
2018-07-09T08:56:12.687Z,18.71
2018-07-09T08:57:12.640Z,18.84
2018-07-09T08:58:12.594Z,18.77
2018-07-09T08:59:12.573Z,18.78
2018-07-09T09:00:12.496Z,18.77
2018-07-09T09:01:12.456Z,18.89
2018-07-09T09:02:12.437Z,18.75
2018-07-09T09:03:12.390Z,18.78
2018-07-09T09:04:12.333Z,18.84
2018-07-09T09:05:12.265Z,18.81
2018-07-09T09:06:12.224Z,18.73
2018-07-09T09:07:12.179Z,18.77
2018-07-09T09:08:12.131Z,18.78
2018-07-09T09:09:12.085Z,18.92
2018-07-09T09:10:12.163Z,18.88
2018-07-09T09:11:12.008Z,18.90
2018-07-09T09:12:11.957Z,18.90
2018-07-09T09:13:11.913Z,18.98
2018-07-09T09:14:11.864Z,18.96
2018-07-09T09:15:11.804Z,18.96
2018-07-09T09:16:11.759Z,19.02
2018-07-09T09:17:11.728Z,18.93
2018-07-09T09:18:11.682Z,18.90
2018-07-09T09:19:11.620Z,18.89
2018-07-09T09:20:11.573Z,18.88
2018-07-09T09:21:11.558Z,18.86
2018-07-09T09:22:11.518Z,18.96
2018-07-09T09:23:11.469Z,18.93
2018-07-09T09:24:11.390Z,18.98
2018-07-09T09:25:11.355Z,18.99
2018-07-09T09:26:11.326Z,18.86
2018-07-09T09:27:11.263Z,18.90
2018-07-09T09:28:11.222Z,18.80
2018-07-09T09:29:11.185Z,18.90
2018-07-09T09:30:11.145Z,18.78
2018-07-09T09:31:11.121Z,18.80
2018-07-09T09:32:11.022Z,18.73
2018-07-09T09:33:10.990Z,18.68
2018-07-09T09:34:10.944Z,18.73
2018-07-09T09:35:10.904Z,18.75
2018-07-09T09:36:10.842Z,18.75
2018-07-09T09:37:10.811Z,18.83
2018-07-09T09:38:10.750Z,18.88
2018-07-09T09:39:10.718Z,18.86
2018-07-09T09:40:10.706Z,18.90
2018-07-09T09:41:10.621Z,18.93
2018-07-09T09:42:10.580Z,18.93
2018-07-09T09:43:10.596Z,18.89
2018-07-09T09:44:10.491Z,18.86
2018-07-09T09:45:10.425Z,18.88
2018-07-09T09:46:10.375Z,18.83
2018-07-09T09:47:10.341Z,18.89
2018-07-09T09:48:10.285Z,18.84
2018-07-09T09:49:10.243Z,18.88
2018-07-09T09:50:10.227Z,18.90
2018-07-09T09:51:10.150Z,18.80
2018-07-09T09:52:10.126Z,18.88
2018-07-09T09:53:10.084Z,18.84
2018-07-09T09:54:10.038Z,18.88
2018-07-09T09:55:09.983Z,18.96
2018-07-09T09:56:09.916Z,18.89
2018-07-09T09:57:09.883Z,18.84
2018-07-09T09:58:09.846Z,18.93
2018-07-09T09:59:09.813Z,18.75
2018-07-09T10:00:09.751Z,18.74
2018-07-09T10:01:09.716Z,18.75
2018-07-09T10:02:09.655Z,18.73
2018-07-09T10:03:09.596Z,18.62
2018-07-09T10:04:09.548Z,18.78
2018-07-09T10:05:09.531Z,18.75
2018-07-09T10:06:09.491Z,18.70
2018-07-09T10:07:09.426Z,18.70
2018-07-09T10:08:09.377Z,18.74
2018-07-09T10:09:09.358Z,18.68
2018-07-09T10:10:09.286Z,18.60
2018-07-09T10:11:09.238Z,18.74
2018-07-09T10:12:09.214Z,18.66
2018-07-09T10:13:09.136Z,18.70
2018-07-09T10:14:09.108Z,18.68
2018-07-09T10:15:09.051Z,18.66
2018-07-09T10:16:09.013Z,18.63
2018-07-09T10:17:08.959Z,18.62
2018-07-09T10:18:08.931Z,18.63
2018-07-09T10:19:08.861Z,18.66
2018-07-09T10:20:08.828Z,18.65
2018-07-09T10:21:08.793Z,18.66
2018-07-09T10:22:08.727Z,18.60
2018-07-09T10:23:08.909Z,18.66
2018-07-09T10:24:08.637Z,18.70
2018-07-09T10:25:08.606Z,18.73
2018-07-09T10:26:08.525Z,18.75
2018-07-09T10:27:08.487Z,18.74
2018-07-09T10:28:08.451Z,18.78
2018-07-09T10:29:08.399Z,18.71
2018-07-09T10:30:08.353Z,18.77
2018-07-09T10:31:08.302Z,18.81
2018-07-09T10:32:08.275Z,18.88
2018-07-09T10:33:08.219Z,18.75
2018-07-09T10:34:08.174Z,18.83
2018-07-09T10:35:08.146Z,18.84
2018-07-09T10:36:08.112Z,18.93
2018-07-09T10:37:08.032Z,18.83
2018-07-09T10:38:08.009Z,18.88
2018-07-09T10:39:07.951Z,18.83
2018-07-09T10:40:07.900Z,18.80
2018-07-09T10:41:07.847Z,18.86
2018-07-09T10:42:07.794Z,18.86
2018-07-09T10:43:07.753Z,18.78
2018-07-09T10:44:07.708Z,18.77
2018-07-09T10:45:07.656Z,18.80
2018-07-09T10:46:07.629Z,18.81
2018-07-09T10:47:07.620Z,18.80
2018-07-09T10:48:07.544Z,18.88
2018-07-09T10:49:07.498Z,18.66
2018-07-09T10:50:07.446Z,18.77
2018-07-09T10:51:07.389Z,18.73
2018-07-09T10:52:07.360Z,18.66
2018-07-09T10:53:07.313Z,18.75
2018-07-09T10:54:07.279Z,18.86
2018-07-09T10:55:07.227Z,18.81
2018-07-09T10:56:07.156Z,18.84
2018-07-09T10:57:07.129Z,18.81
2018-07-09T10:58:07.058Z,18.86
2018-07-09T10:59:07.025Z,18.81
2018-07-09T11:00:06.982Z,18.77
2018-07-09T11:01:06.935Z,18.73
2018-07-09T11:02:06.899Z,18.80
2018-07-09T11:03:06.838Z,18.75
2018-07-09T11:04:06.793Z,18.71
2018-07-09T11:05:06.741Z,18.74
2018-07-09T11:06:06.701Z,18.66
2018-07-09T11:07:06.674Z,18.65
2018-07-09T11:08:06.615Z,18.59
2018-07-09T11:09:06.592Z,18.68
2018-07-09T11:10:06.549Z,18.60
2018-07-09T11:11:06.470Z,18.70
2018-07-09T11:12:06.419Z,18.73
2018-07-09T11:13:06.367Z,18.77
2018-07-09T11:14:06.338Z,18.74
2018-07-09T11:15:06.284Z,18.70
2018-07-09T11:16:06.244Z,18.70
2018-07-09T11:17:06.214Z,18.80
2018-07-09T11:18:06.156Z,18.66
2018-07-09T11:19:06.101Z,18.71
2018-07-09T11:20:06.061Z,18.77
2018-07-09T11:21:06.012Z,18.74
2018-07-09T11:22:05.962Z,18.75
2018-07-09T11:23:05.918Z,18.89
2018-07-09T11:24:05.872Z,18.74
2018-07-09T11:25:05.839Z,18.73
2018-07-09T11:26:05.783Z,18.65
2018-07-09T11:27:05.754Z,18.66
2018-07-09T11:28:05.673Z,18.73
2018-07-09T11:29:05.632Z,18.71
2018-07-09T11:30:05.612Z,18.73
2018-07-09T11:31:05.545Z,18.71
2018-07-09T11:32:05.518Z,18.71
2018-07-09T11:33:05.446Z,18.73
2018-07-09T11:34:05.426Z,18.81
2018-07-09T11:35:05.376Z,18.74
2018-07-09T11:36:05.339Z,18.73
2018-07-09T11:37:05.292Z,18.90
2018-07-09T11:38:05.235Z,18.78
2018-07-09T11:39:05.186Z,18.65
2018-07-09T11:40:05.136Z,18.84
2018-07-09T11:41:05.077Z,18.78
2018-07-09T11:42:05.090Z,18.89
2018-07-09T11:43:05.014Z,18.86
2018-07-09T11:44:04.959Z,18.77
2018-07-09T11:45:04.898Z,18.86
2018-07-09T11:46:04.874Z,18.86
2018-07-09T11:47:04.812Z,18.88
2018-07-09T11:48:04.785Z,18.80
2018-07-09T11:49:04.710Z,18.75
2018-07-09T11:50:04.665Z,18.89
2018-07-09T11:51:04.626Z,18.80
2018-07-09T11:52:04.621Z,18.89
2018-07-09T11:53:04.530Z,18.84
2018-07-09T11:54:04.479Z,18.88
2018-07-09T11:55:04.438Z,18.90
2018-07-09T11:56:04.441Z,18.84
2018-07-09T11:57:04.338Z,18.86
2018-07-09T11:58:04.309Z,18.96
2018-07-09T11:59:04.264Z,18.90
2018-07-09T12:00:04.221Z,18.90
2018-07-09T12:01:04.199Z,18.88
2018-07-09T12:02:04.128Z,18.89
2018-07-09T12:03:04.070Z,18.88
2018-07-09T12:04:04.020Z,18.83
2018-07-09T12:05:03.992Z,18.84
2018-07-09T12:06:03.929Z,18.86
2018-07-09T12:07:03.902Z,18.99
2018-07-09T12:08:03.840Z,18.98
2018-07-09T12:09:03.810Z,18.95
2018-07-09T12:10:03.746Z,18.98
2018-07-09T12:11:03.729Z,19.12
2018-07-09T12:12:03.664Z,19.11
2018-07-09T12:13:03.613Z,19.08
2018-07-09T12:14:03.588Z,19.14
2018-07-09T12:15:03.530Z,19.18
2018-07-09T12:16:03.500Z,19.19
2018-07-09T12:17:03.423Z,19.21
2018-07-09T12:18:03.415Z,19.22
2018-07-09T12:19:03.334Z,19.24
2018-07-09T12:20:03.306Z,19.30
2018-07-09T12:21:03.253Z,19.36
2018-07-09T12:22:03.202Z,19.44
2018-07-09T12:23:03.161Z,19.48
2018-07-09T12:24:03.135Z,19.54
2018-07-09T12:25:03.079Z,19.48
2018-07-09T12:26:03.014Z,19.59
2018-07-09T12:27:02.998Z,19.51
2018-07-09T12:28:02.943Z,19.58
2018-07-09T12:29:02.984Z,19.51
2018-07-09T12:30:02.839Z,19.59
2018-07-09T12:31:02.793Z,19.58
2018-07-09T12:32:02.747Z,19.55
2018-07-09T12:33:02.726Z,19.59
2018-07-09T12:34:02.664Z,19.48
2018-07-09T12:35:02.621Z,19.63
2018-07-09T12:36:02.607Z,19.47
2018-07-09T12:37:02.548Z,19.58
2018-07-09T12:38:02.513Z,19.62
2018-07-09T12:39:02.430Z,19.64
2018-07-09T12:40:02.385Z,19.67
2018-07-09T12:41:02.355Z,19.59
2018-07-09T12:42:02.305Z,19.76
2018-07-09T12:43:02.250Z,19.77
2018-07-09T12:44:02.212Z,19.88
2018-07-09T12:45:02.180Z,19.84
2018-07-09T12:46:02.112Z,19.92
2018-07-09T12:47:02.075Z,19.85
2018-07-09T12:48:02.049Z,19.85
2018-07-09T12:49:02.001Z,19.63
2018-07-09T12:50:01.955Z,19.67
2018-07-09T12:51:01.890Z,19.79
2018-07-09T12:52:01.850Z,19.84
2018-07-09T12:53:01.822Z,20.02